createdAt,value
2022-10-10T00:01:23.910Z,57.83
2022-10-10T00:03:50.938Z,57.86
2022-10-10T00:06:18.394Z,58.53
2022-10-10T00:08:46.383Z,58.03
2022-10-10T00:11:15.370Z,58.03
2022-10-10T00:13:42.453Z,58.11
2022-10-10T00:16:10.203Z,58.71
2022-10-10T00:18:38.206Z,58.67
2022-10-10T00:21:05.369Z,59.14
2022-10-10T00:23:32.368Z,59.06
2022-10-10T00:25:59.579Z,58.62
2022-10-10T00:28:27.393Z,58.60
2022-10-10T00:30:54.617Z,58.49
2022-10-10T00:33:21.514Z,58.62
2022-10-10T00:35:49.531Z,59.87
2022-10-10T00:38:16.990Z,59.47
2022-10-10T00:40:52.720Z,58.70
2022-10-10T00:43:20.929Z,58.72
2022-10-10T00:45:49.135Z,58.37
2022-10-10T00:48:22.767Z,58.61
2022-10-10T00:50:52.803Z,58.98
2022-10-10T00:53:23.869Z,58.99
2022-10-10T00:55:51.793Z,58.86
2022-10-10T00:58:20.423Z,59.18
2022-10-10T01:00:47.532Z,59.33
2022-10-10T01:03:14.787Z,59.05
2022-10-10T01:05:43.700Z,58.92
2022-10-10T01:08:11.121Z,59.03
2022-10-10T01:11:04.929Z,59.59
2022-10-10T01:14:10.246Z,59.76
2022-10-10T01:16:50.981Z,59.71
2022-10-10T01:19:45.644Z,59.98
2022-10-10T01:22:32.772Z,60.72
2022-10-10T01:25:05.373Z,60.87
2022-10-10T01:27:42.764Z,60.16
2022-10-10T01:30:20.746Z,59.86
2022-10-10T01:32:54.224Z,60.32
2022-10-10T01:35:41.034Z,60.10
2022-10-10T01:38:10.779Z,59.96
2022-10-10T01:40:51.209Z,60.51
2022-10-10T01:43:18.731Z,60.26
2022-10-10T01:45:51.288Z,60.42
2022-10-10T01:48:27.656Z,60.71
2022-10-10T01:51:29.662Z,60.88
2022-10-10T01:54:18.515Z,60.64
2022-10-10T01:57:10.150Z,60.52
2022-10-10T01:59:49.149Z,60.46
2022-10-10T02:02:34.318Z,60.17
2022-10-10T02:05:17.590Z,60.94
2022-10-10T02:08:11.042Z,61.09
2022-10-10T02:10:46.680Z,61.02
2022-10-10T02:13:16.096Z,60.66
2022-10-10T02:15:47.674Z,61.24
2022-10-10T02:18:18.972Z,61.53
2022-10-10T02:20:46.357Z,60.75
2022-10-10T02:23:16.791Z,61.94
2022-10-10T02:25:50.815Z,61.84
2022-10-10T02:28:38.034Z,61.88
2022-10-10T02:31:10.551Z,62.25
2022-10-10T02:33:53.439Z,62.41
2022-10-10T02:36:22.089Z,62.31
2022-10-10T02:38:52.504Z,62.87
2022-10-10T02:41:21.868Z,63.00
2022-10-10T02:43:50.297Z,62.66
2022-10-10T02:46:18.080Z,62.20
2022-10-10T02:48:45.292Z,62.32
2022-10-10T02:51:14.605Z,62.42
2022-10-10T02:53:41.577Z,63.00
2022-10-10T02:56:08.806Z,63.14
2022-10-10T02:58:35.862Z,63.30
2022-10-10T03:01:02.923Z,62.78
2022-10-10T03:03:29.965Z,62.80
2022-10-10T03:05:56.894Z,62.90
2022-10-10T03:08:23.905Z,62.94
2022-10-10T03:10:59.150Z,62.60
2022-10-10T03:13:26.776Z,62.58
2022-10-10T03:15:54.107Z,62.30
2022-10-10T03:18:20.987Z,62.43
2022-10-10T03:20:52.951Z,62.54
2022-10-10T03:23:20.472Z,62.41
2022-10-10T03:25:47.825Z,62.25
2022-10-10T03:28:15.209Z,61.60
2022-10-10T03:30:42.698Z,61.07
2022-10-10T03:33:10.324Z,61.49
2022-10-10T03:35:37.526Z,62.08
2022-10-10T03:38:04.941Z,62.18
2022-10-10T03:40:33.891Z,62.91
2022-10-10T03:43:00.937Z,62.91
2022-10-10T03:45:27.919Z,62.89
2022-10-10T03:47:54.934Z,62.52
2022-10-10T03:50:21.865Z,62.19
2022-10-10T03:52:49.064Z,62.09
2022-10-10T03:55:16.388Z,62.09
2022-10-10T03:57:44.033Z,62.41
2022-10-10T04:00:12.005Z,62.24
2022-10-10T04:02:38.940Z,62.19
2022-10-10T04:05:06.451Z,62.44
2022-10-10T04:07:33.494Z,62.51
2022-10-10T04:10:00.415Z,62.26
2022-10-10T04:12:27.380Z,62.44
2022-10-10T04:14:54.336Z,62.99
2022-10-10T04:17:21.440Z,62.56
2022-10-10T04:19:48.439Z,62.64
2022-10-10T04:22:16.689Z,62.42
2022-10-10T04:24:44.247Z,62.40
2022-10-10T04:27:11.386Z,62.74
2022-10-10T04:29:38.358Z,63.46
2022-10-10T04:32:05.833Z,63.39
2022-10-10T04:34:35.614Z,63.37
2022-10-10T04:37:02.581Z,63.03
2022-10-10T04:39:30.041Z,62.92
2022-10-10T04:41:56.971Z,63.03
2022-10-10T04:44:24.032Z,63.55
2022-10-10T04:46:51.045Z,63.07
2022-10-10T04:49:18.084Z,63.18
2022-10-10T04:51:45.083Z,63.60
2022-10-10T04:54:12.087Z,64.13
2022-10-10T04:56:41.225Z,63.82
2022-10-10T04:59:09.204Z,63.36
2022-10-10T05:01:36.561Z,63.87
2022-10-10T05:04:04.288Z,65.26
2022-10-10T05:06:31.590Z,65.70
2022-10-10T05:08:58.595Z,65.39
2022-10-10T05:11:25.606Z,65.63
2022-10-10T05:13:52.572Z,65.98
2022-10-10T05:16:19.557Z,67.03
2022-10-10T05:18:46.572Z,66.84
2022-10-10T05:21:13.510Z,66.72
2022-10-10T05:23:41.894Z,66.70
2022-10-10T05:26:09.804Z,66.87
2022-10-10T05:28:37.009Z,68.69
2022-10-10T05:31:05.116Z,69.71
2022-10-10T05:33:33.673Z,70.25
2022-10-10T05:36:10.773Z,69.75
2022-10-10T05:38:38.574Z,70.08
2022-10-10T05:41:06.667Z,70.39
2022-10-10T05:43:33.961Z,68.10
2022-10-10T05:46:01.557Z,68.06
2022-10-10T05:48:28.609Z,69.06
2022-10-10T05:50:57.933Z,68.99
2022-10-10T05:53:26.808Z,68.32
2022-10-10T05:55:54.527Z,67.99
2022-10-10T05:58:21.499Z,67.81
2022-10-10T06:00:49.160Z,67.26
2022-10-10T06:03:17.364Z,66.97
2022-10-10T06:05:46.270Z,66.16
2022-10-10T06:08:13.330Z,65.98
2022-10-10T06:10:43.372Z,66.14
2022-10-10T06:13:11.790Z,66.09
2022-10-10T06:15:38.769Z,65.62
2022-10-10T06:18:06.481Z,65.67
2022-10-10T06:20:41.262Z,65.84
2022-10-10T06:23:09.138Z,65.80
2022-10-10T06:25:41.823Z,66.29
2022-10-10T06:28:09.923Z,66.18
2022-10-10T06:30:44.116Z,66.21
2022-10-10T06:33:12.534Z,65.77
2022-10-10T06:35:44.232Z,65.79
2022-10-10T06:38:11.339Z,66.17
2022-10-10T06:40:39.403Z,66.09
2022-10-10T06:43:12.250Z,66.56
2022-10-10T06:45:41.933Z,65.95
2022-10-10T06:48:09.668Z,66.38
2022-10-10T06:50:36.966Z,65.74
2022-10-10T06:53:04.189Z,66.38
2022-10-10T06:55:31.424Z,64.06
2022-10-10T06:57:59.218Z,65.21
2022-10-10T07:00:26.314Z,65.11
2022-10-10T07:02:53.553Z,64.08
2022-10-10T07:05:20.787Z,64.73
2022-10-10T07:07:47.787Z,61.95
2022-10-10T07:10:16.019Z,61.77
2022-10-10T07:12:45.071Z,61.73
2022-10-10T07:15:12.879Z,60.93
2022-10-10T07:17:40.284Z,60.32
2022-10-10T07:20:07.666Z,61.67
2022-10-10T07:22:35.195Z,60.04
2022-10-10T07:25:02.118Z,58.74
2022-10-10T07:27:29.069Z,60.04
2022-10-10T07:29:56.018Z,60.34
2022-10-10T07:32:23.082Z,59.57
2022-10-10T07:34:51.059Z,58.94
2022-10-10T07:37:18.177Z,56.92
2022-10-10T07:39:45.369Z,57.59
2022-10-10T07:42:12.564Z,55.53
2022-10-10T07:44:39.560Z,54.23
2022-10-10T07:47:06.548Z,56.02
2022-10-10T07:49:33.481Z,55.38
2022-10-10T07:52:01.672Z,56.86
2022-10-10T07:54:30.540Z,54.41
2022-10-10T07:56:58.233Z,54.71
2022-10-10T07:59:25.509Z,56.43
2022-10-10T08:01:52.816Z,56.11
2022-10-10T08:04:20.082Z,55.02
2022-10-10T08:06:47.026Z,53.93
2022-10-10T08:09:13.988Z,54.08
2022-10-10T08:11:40.871Z,54.77
2022-10-10T08:14:08.188Z,52.80
2022-10-10T08:16:35.469Z,52.50
2022-10-10T08:19:02.626Z,50.70
2022-10-10T08:21:29.680Z,51.08
2022-10-10T08:23:56.717Z,51.34
2022-10-10T08:26:23.764Z,52.55
2022-10-10T08:28:50.837Z,51.41
2022-10-10T08:31:20.440Z,51.42
2022-10-10T08:33:49.421Z,50.96
2022-10-10T08:36:22.253Z,49.91
2022-10-10T08:38:50.025Z,50.36
2022-10-10T08:41:54.150Z,51.10
2022-10-10T08:44:45.493Z,52.56
2022-10-10T08:47:26.668Z,51.07
2022-10-10T08:50:06.213Z,51.19
2022-10-10T08:52:45.741Z,50.56
2022-10-10T08:55:33.986Z,47.27
2022-10-10T08:58:24.245Z,49.48
2022-10-10T09:01:23.746Z,49.56
2022-10-10T09:03:55.664Z,49.32
2022-10-10T09:07:00.074Z,47.26
2022-10-10T09:09:36.284Z,46.02
2022-10-10T09:12:26.667Z,48.11
2022-10-10T09:15:23.703Z,46.27
2022-10-10T09:18:22.801Z,48.10
2022-10-10T09:21:14.932Z,46.93
2022-10-10T09:23:53.703Z,46.85
2022-10-10T09:26:26.243Z,46.03
2022-10-10T09:29:04.723Z,45.15
2022-10-10T09:31:49.482Z,44.81
2022-10-10T09:34:31.573Z,43.99
2022-10-10T09:37:02.439Z,46.92
2022-10-10T09:39:32.788Z,47.46
2022-10-10T09:42:12.245Z,45.40
2022-10-10T09:44:40.558Z,45.30
2022-10-10T09:47:07.635Z,45.92
2022-10-10T09:49:35.483Z,47.03
2022-10-10T09:52:18.024Z,45.17
2022-10-10T09:54:45.047Z,46.28
2022-10-10T09:57:15.989Z,45.50
2022-10-10T09:59:45.840Z,43.11
2022-10-10T10:02:12.992Z,43.29
2022-10-10T10:04:40.057Z,45.25
2022-10-10T10:07:30.060Z,43.50
2022-10-10T10:10:00.170Z,43.88
2022-10-10T10:12:44.360Z,45.22
2022-10-10T10:15:29.932Z,46.21
2022-10-10T10:18:13.463Z,43.13
2022-10-10T10:20:46.300Z,44.49
2022-10-10T10:23:44.722Z,44.88
2022-10-10T10:26:17.618Z,46.29
2022-10-10T10:28:45.979Z,42.98
2022-10-10T10:31:42.683Z,45.45
2022-10-10T10:34:20.184Z,44.57
2022-10-10T10:36:47.204Z,44.49
2022-10-10T10:39:47.674Z,43.70
2022-10-10T10:42:39.181Z,44.21
2022-10-10T10:45:16.877Z,44.51
2022-10-10T10:48:07.038Z,45.43
2022-10-10T10:50:40.109Z,42.98
2022-10-10T10:53:34.685Z,45.38
2022-10-10T10:56:26.342Z,46.26
2022-10-10T11:02:08.099Z,44.72
2022-10-10T11:05:21.395Z,45.34
2022-10-10T11:07:49.200Z,43.78
2022-10-10T11:10:28.975Z,44.76
2022-10-10T11:13:32.924Z,43.01
2022-10-10T11:16:20.354Z,44.09
2022-10-10T11:19:15.511Z,44.19
2022-10-10T11:21:56.352Z,43.52
2022-10-10T11:24:29.468Z,45.04
2022-10-10T11:27:02.764Z,44.18
2022-10-10T11:29:50.857Z,45.35
2022-10-10T11:32:23.369Z,45.24
2022-10-10T11:35:08.851Z,44.79
2022-10-10T11:37:42.407Z,42.05
2022-10-10T11:40:27.482Z,44.69
2022-10-10T11:43:02.996Z,45.76
2022-10-10T11:45:35.632Z,45.72
2022-10-10T11:48:08.056Z,44.54
2022-10-10T11:50:40.591Z,44.08
2022-10-10T11:53:17.673Z,44.10
2022-10-10T11:56:10.068Z,45.35
2022-10-10T11:58:42.752Z,43.38
2022-10-10T12:01:15.617Z,44.29
2022-10-10T12:03:42.717Z,44.02
2022-10-10T12:06:31.619Z,45.08
2022-10-10T12:09:13.498Z,45.98
2022-10-10T12:11:53.989Z,46.06
2022-10-10T12:14:23.201Z,45.94
2022-10-10T12:16:50.741Z,44.93
2022-10-10T12:19:26.840Z,45.66
2022-10-10T12:22:05.619Z,45.59
2022-10-10T12:25:00.314Z,45.76
2022-10-10T12:27:42.717Z,43.69
2022-10-10T12:30:09.730Z,44.82
2022-10-10T12:32:38.613Z,42.65
2022-10-10T12:35:28.032Z,44.46
2022-10-10T12:38:16.937Z,44.72
2022-10-10T12:41:08.493Z,44.03
2022-10-10T12:43:44.423Z,43.97
2022-10-10T12:46:29.551Z,43.97
2022-10-10T12:49:14.710Z,45.19
2022-10-10T12:51:43.485Z,44.50
2022-10-10T12:54:24.684Z,44.25
2022-10-10T12:57:01.652Z,45.04
2022-10-10T12:59:29.129Z,44.80
2022-10-10T13:02:03.100Z,43.30
2022-10-10T13:04:30.868Z,43.65
2022-10-10T13:07:01.458Z,44.86
2022-10-10T13:09:35.455Z,45.09
2022-10-10T13:12:05.590Z,44.18
2022-10-10T13:14:42.120Z,43.42
2022-10-10T13:17:27.332Z,43.90
2022-10-10T13:19:56.010Z,44.58
2022-10-10T13:22:23.648Z,45.54
2022-10-10T13:24:52.003Z,44.85
2022-10-10T13:27:23.073Z,44.24
2022-10-10T13:29:51.294Z,44.86
2022-10-10T13:32:25.969Z,45.45
2022-10-10T13:34:58.934Z,44.72
2022-10-10T13:37:26.350Z,44.75
2022-10-10T13:39:54.034Z,44.10
2022-10-10T13:42:26.866Z,43.97
2022-10-10T13:44:54.975Z,44.18
2022-10-10T13:47:49.538Z,45.08
2022-10-10T13:50:25.634Z,44.19
2022-10-10T13:53:26.689Z,44.84
2022-10-10T13:55:59.991Z,44.06
2022-10-10T13:58:33.742Z,45.03
2022-10-10T14:01:03.596Z,45.65
2022-10-10T14:03:33.320Z,45.77
2022-10-10T14:06:00.726Z,45.26
2022-10-10T14:08:32.722Z,44.88
2022-10-10T14:11:05.502Z,45.82
2022-10-10T14:13:34.599Z,45.71
2022-10-10T14:16:12.324Z,45.47
2022-10-10T14:18:39.327Z,45.10
2022-10-10T14:21:08.450Z,44.80
2022-10-10T14:23:37.000Z,44.76
2022-10-10T14:26:05.353Z,45.16
2022-10-10T14:28:34.124Z,45.02
2022-10-10T14:31:01.545Z,45.82
2022-10-10T14:33:28.655Z,45.94
2022-10-10T14:35:58.165Z,46.12
2022-10-10T14:38:25.875Z,45.28
2022-10-10T14:40:54.062Z,45.36
2022-10-10T14:43:22.700Z,45.40
2022-10-10T14:45:51.525Z,45.07
2022-10-10T14:48:19.435Z,45.70
2022-10-10T14:50:48.442Z,46.10
2022-10-10T14:53:15.968Z,46.19
2022-10-10T14:55:43.879Z,46.24
2022-10-10T14:58:19.034Z,45.85
2022-10-10T15:00:46.905Z,44.95
2022-10-10T15:03:14.474Z,45.63
2022-10-10T15:05:41.783Z,45.81
2022-10-10T15:08:10.533Z,45.25
2022-10-10T15:10:37.523Z,45.29
2022-10-10T15:13:04.643Z,45.71
2022-10-10T15:15:31.650Z,45.71
2022-10-10T15:17:59.597Z,45.98
2022-10-10T15:20:31.336Z,46.23
2022-10-10T15:23:04.345Z,46.17
2022-10-10T15:25:34.009Z,46.31
2022-10-10T15:28:02.977Z,47.05
2022-10-10T15:30:30.627Z,47.31
2022-10-10T15:32:57.705Z,47.06
2022-10-10T15:35:25.245Z,47.00
2022-10-10T15:37:52.726Z,46.93
2022-10-10T15:40:23.688Z,47.09
2022-10-10T15:42:51.331Z,47.12
2022-10-10T15:45:43.520Z,47.10
2022-10-10T15:48:06.025Z,47.19
2022-10-10T15:50:36.104Z,47.77
2022-10-10T15:53:03.185Z,47.91
2022-10-10T15:55:30.112Z,47.79
2022-10-10T15:57:57.120Z,47.71
2022-10-10T16:00:24.172Z,47.73
2022-10-10T16:02:51.263Z,47.84
2022-10-10T16:05:18.208Z,47.51
2022-10-10T16:07:48.382Z,47.83
2022-10-10T16:10:16.224Z,47.86
2022-10-10T16:12:43.331Z,48.16
2022-10-10T16:15:10.506Z,48.10
2022-10-10T16:17:37.479Z,48.30
2022-10-10T16:20:05.088Z,48.03
2022-10-10T16:22:32.036Z,48.03
2022-10-10T16:27:46.360Z,48.21
2022-10-10T16:30:13.636Z,48.29
2022-10-10T16:32:42.543Z,48.67
2022-10-10T16:35:11.032Z,48.25
2022-10-10T16:37:39.179Z,47.96
2022-10-10T16:40:07.437Z,48.26
2022-10-10T16:42:34.881Z,48.69
2022-10-10T16:45:01.986Z,48.54
2022-10-10T16:47:28.967Z,48.99
2022-10-10T16:49:55.940Z,49.28
2022-10-10T16:52:23.040Z,48.84
2022-10-10T16:54:52.225Z,48.94
2022-10-10T16:57:20.110Z,48.96
2022-10-10T16:59:47.177Z,49.31
2022-10-10T17:02:14.230Z,49.39
2022-10-10T17:04:41.169Z,49.35
2022-10-10T17:07:08.140Z,49.41
2022-10-10T17:09:35.143Z,49.66
2022-10-10T17:12:02.175Z,49.51
2022-10-10T17:14:29.287Z,49.51
2022-10-10T17:17:13.046Z,49.45
2022-10-10T17:19:40.664Z,49.65
2022-10-10T17:22:07.933Z,50.05
2022-10-10T17:24:36.067Z,50.27
2022-10-10T17:27:03.184Z,49.70
2022-10-10T17:29:32.023Z,50.10
2022-10-10T17:32:02.723Z,50.26
2022-10-10T17:34:32.976Z,50.12
2022-10-10T17:36:59.936Z,50.22
2022-10-10T17:39:26.996Z,50.24
2022-10-10T17:41:54.044Z,50.40
2022-10-10T17:44:21.336Z,50.37
2022-10-10T17:46:48.290Z,50.45
2022-10-10T17:49:15.303Z,50.95
2022-10-10T17:51:42.459Z,51.15
2022-10-10T17:54:10.200Z,51.01
2022-10-10T17:56:37.715Z,51.07
2022-10-10T17:59:06.590Z,52.02
2022-10-10T18:01:35.469Z,51.70
2022-10-10T18:04:02.542Z,51.99
2022-10-10T18:06:30.040Z,52.54
2022-10-10T18:08:57.865Z,52.69
2022-10-10T18:11:28.908Z,52.54
2022-10-10T18:14:00.496Z,52.49
2022-10-10T18:16:32.357Z,53.08
2022-10-10T18:19:00.357Z,53.71
2022-10-10T18:21:27.352Z,53.62
2022-10-10T18:23:54.818Z,53.89
2022-10-10T18:26:24.766Z,53.90
2022-10-10T18:28:55.958Z,53.93
2022-10-10T18:31:26.262Z,54.00
2022-10-10T18:33:53.925Z,54.89
2022-10-10T18:36:24.503Z,54.93
2022-10-10T18:38:52.062Z,54.88
2022-10-10T18:41:21.827Z,55.00
2022-10-10T18:43:49.778Z,55.18
2022-10-10T18:46:19.638Z,55.26
2022-10-10T18:48:51.527Z,55.10
2022-10-10T18:51:27.094Z,55.29
2022-10-10T18:54:02.269Z,55.23
2022-10-10T18:56:31.360Z,55.38
2022-10-10T18:59:03.541Z,55.16
2022-10-10T19:01:33.540Z,55.25
2022-10-10T19:04:00.785Z,55.30
2022-10-10T19:06:28.078Z,55.29
2022-10-10T19:08:57.026Z,55.23
2022-10-10T19:11:32.878Z,55.51
2022-10-10T19:14:01.775Z,55.21
2022-10-10T19:16:29.476Z,55.36
2022-10-10T19:18:58.692Z,55.30
2022-10-10T19:21:28.026Z,55.39
2022-10-10T19:23:55.454Z,55.27
2022-10-10T19:26:22.572Z,55.15
2022-10-10T19:28:49.747Z,55.19
2022-10-10T19:31:18.471Z,55.19
2022-10-10T19:33:50.317Z,55.24
2022-10-10T19:36:17.427Z,55.35
2022-10-10T19:38:44.795Z,55.64
2022-10-10T19:41:14.142Z,55.43
2022-10-10T19:43:42.952Z,55.29
2022-10-10T19:46:12.700Z,55.12
2022-10-10T19:48:40.527Z,55.35
2022-10-10T19:51:13.301Z,55.40
2022-10-10T19:53:41.754Z,55.40
2022-10-10T19:56:15.054Z,55.53
2022-10-10T19:58:43.784Z,55.74
2022-10-10T20:01:13.713Z,55.95
2022-10-10T20:03:41.539Z,55.88
2022-10-10T20:06:08.630Z,55.91
2022-10-10T20:08:36.089Z,55.77
2022-10-10T20:11:03.373Z,55.81
2022-10-10T20:13:31.467Z,55.85
2022-10-10T20:16:03.904Z,56.06
2022-10-10T20:18:34.006Z,56.35
2022-10-10T20:21:06.297Z,56.43
2022-10-10T20:23:33.220Z,56.58
2022-10-10T20:26:00.325Z,56.68
2022-10-10T20:28:27.586Z,56.71
2022-10-10T20:30:54.676Z,56.71
2022-10-10T20:33:21.993Z,56.59
2022-10-10T20:35:53.619Z,56.52
2022-10-10T20:38:23.020Z,56.60
2022-10-10T20:40:50.036Z,56.46
2022-10-10T20:43:16.966Z,56.66
2022-10-10T20:45:43.935Z,56.71
2022-10-10T20:48:11.018Z,56.49
2022-10-10T20:50:39.002Z,56.77
2022-10-10T20:53:06.815Z,56.59
2022-10-10T20:55:33.979Z,56.55
2022-10-10T20:58:00.945Z,56.46
2022-10-10T21:00:28.153Z,56.56
2022-10-10T21:02:56.617Z,56.67
2022-10-10T21:05:23.914Z,56.87
2022-10-10T21:07:51.030Z,56.94
2022-10-10T21:10:18.113Z,57.23
2022-10-10T21:12:45.077Z,57.05
2022-10-10T21:15:12.163Z,56.97
2022-10-10T21:17:39.213Z,56.90
2022-10-10T21:20:07.264Z,57.27
2022-10-10T21:22:34.341Z,57.14
2022-10-10T21:25:01.418Z,57.25
2022-10-10T21:27:28.446Z,57.10
2022-10-10T21:29:55.875Z,56.98
2022-10-10T21:32:22.982Z,57.05
2022-10-10T21:34:54.279Z,57.01
2022-10-10T21:37:24.805Z,57.25
2022-10-10T21:39:51.756Z,57.24
2022-10-10T21:42:19.521Z,57.22
2022-10-10T21:44:46.610Z,57.52
2022-10-10T21:47:13.559Z,57.60
2022-10-10T21:49:40.471Z,57.68
2022-10-10T21:52:07.388Z,57.87
2022-10-10T21:54:34.289Z,57.99
2022-10-10T21:57:01.316Z,57.85
2022-10-10T21:59:31.810Z,57.92
2022-10-10T22:01:59.010Z,58.00
2022-10-10T22:04:28.972Z,57.79
2022-10-10T22:06:56.473Z,58.04
2022-10-10T22:09:23.453Z,58.32
2022-10-10T22:11:50.432Z,58.24
2022-10-10T22:14:17.708Z,58.19
2022-10-10T22:16:46.342Z,58.17
2022-10-10T22:19:13.328Z,58.57
2022-10-10T22:21:40.319Z,58.40
2022-10-10T22:24:08.993Z,58.38
2022-10-10T22:26:36.494Z,58.46
2022-10-10T22:29:04.750Z,58.51
2022-10-10T22:31:31.814Z,58.56
2022-10-10T22:33:58.925Z,58.47
2022-10-10T22:36:25.942Z,58.46
2022-10-10T22:38:53.140Z,58.84
2022-10-10T22:41:20.131Z,59.32
2022-10-10T22:43:47.458Z,60.20
2022-10-10T22:46:14.492Z,59.66
2022-10-10T22:48:41.718Z,59.84
2022-10-10T22:51:12.384Z,59.86
2022-10-10T22:53:41.006Z,59.79
2022-10-10T22:56:09.629Z,59.24
2022-10-10T22:58:37.055Z,58.97
2022-10-10T23:01:10.040Z,58.82
2022-10-10T23:03:37.173Z,58.95
2022-10-10T23:06:05.080Z,58.52
2022-10-10T23:08:32.408Z,58.88
2022-10-10T23:10:59.685Z,58.92
2022-10-10T23:13:26.809Z,58.99
2022-10-10T23:15:53.933Z,58.86
2022-10-10T23:18:20.922Z,58.83
2022-10-10T23:20:49.505Z,58.70
2022-10-10T23:23:18.083Z,58.54
2022-10-10T23:25:47.436Z,58.57
2022-10-10T23:28:15.953Z,58.52
2022-10-10T23:30:44.993Z,58.31
2022-10-10T23:33:12.921Z,58.54
2022-10-10T23:35:39.920Z,58.47
2022-10-10T23:38:07.323Z,58.42
2022-10-10T23:40:34.601Z,58.25
2022-10-10T23:43:01.682Z,58.51
2022-10-10T23:45:28.790Z,58.84
2022-10-10T23:47:55.799Z,58.75
2022-10-10T23:50:22.745Z,58.56
2022-10-10T23:52:49.721Z,58.40
2022-10-10T23:55:16.721Z,58.44
2022-10-10T23:57:43.624Z,58.45
